sensor_id;sensor_type;location;lat;lon;timestamp;temperature;humidity
5705;DHT22;2877;48.238;11.160;2023-12-28T00:00:24;4.80;99.90
5705;DHT22;2877;48.238;11.160;2023-12-28T00:02:50;4.80;99.90
5705;DHT22;2877;48.238;11.160;2023-12-28T00:05:15;4.60;99.90
5705;DHT22;2877;48.238;11.160;2023-12-28T00:07:41;4.40;99.90
5705;DHT22;2877;48.238;11.160;2023-12-28T00:10:06;4.30;99.90
5705;DHT22;2877;48.238;11.160;2023-12-28T00:12:32;4.10;99.90
5705;DHT22;2877;48.238;11.160;2023-12-28T00:14:58;3.90;99.90
5705;DHT22;2877;48.238;11.160;2023-12-28T00:17:23;3.70;99.90
5705;DHT22;2877;48.238;11.160;2023-12-28T00:19:49;3.60;99.90
5705;DHT22;2877;48.238;11.160;2023-12-28T00:22:14;3.60;99.90
5705;DHT22;2877;48.238;11.160;2023-12-28T00:24:40;3.80;99.90
5705;DHT22;2877;48.238;11.160;2023-12-28T00:27:05;3.80;99.90
5705;DHT22;2877;48.238;11.160;2023-12-28T00:29:31;3.80;99.90
5705;DHT22;2877;48.238;11.160;2023-12-28T00:31:57;3.70;99.90
5705;DHT22;2877;48.238;11.160;2023-12-28T00:34:23;3.60;99.90
5705;DHT22;2877;48.238;11.160;2023-12-28T00:36:48;3.50;99.90
5705;DHT22;2877;48.238;11.160;2023-12-28T00:39:14;3.40;99.90
5705;DHT22;2877;48.238;11.160;2023-12-28T00:41:40;3.40;99.90
5705;DHT22;2877;48.238;11.160;2023-12-28T00:44:06;3.40;99.90
5705;DHT22;2877;48.238;11.160;2023-12-28T00:46:35;3.40;99.90
5705;DHT22;2877;48.238;11.160;2023-12-28T00:49:00;3.40;99.90
5705;DHT22;2877;48.238;11.160;2023-12-28T00:51:26;3.60;99.90
5705;DHT22;2877;48.238;11.160;2023-12-28T00:53:51;4.00;99.90
5705;DHT22;2877;48.238;11.160;2023-12-28T00:56:17;4.30;99.90
5705;DHT22;2877;48.238;11.160;2023-12-28T00:58:43;4.60;99.90
5705;DHT22;2877;48.238;11.160;2023-12-28T01:01:09;4.90;99.90
5705;DHT22;2877;48.238;11.160;2023-12-28T01:03:35;5.20;99.90
5705;DHT22;2877;48.238;11.160;2023-12-28T01:06:01;5.30;99.90
5705;DHT22;2877;48.238;11.160;2023-12-28T01:08:26;5.50;99.90
5705;DHT22;2877;48.238;11.160;2023-12-28T01:10:52;5.50;99.90
5705;DHT22;2877;48.238;11.160;2023-12-28T01:13:17;5.70;99.90
5705;DHT22;2877;48.238;11.160;2023-12-28T01:15:43;5.90;99.90
5705;DHT22;2877;48.238;11.160;2023-12-28T01:18:08;6.00;99.90
5705;DHT22;2877;48.238;11.160;2023-12-28T01:20:34;6.10;99.90
5705;DHT22;2877;48.238;11.160;2023-12-28T01:23:00;6.10;99.90
5705;DHT22;2877;48.238;11.160;2023-12-28T01:25:26;6.10;99.90
5705;DHT22;2877;48.238;11.160;2023-12-28T01:27:51;6.20;99.90
5705;DHT22;2877;48.238;11.160;2023-12-28T01:30:17;6.30;99.90
5705;DHT22;2877;48.238;11.160;2023-12-28T01:32:42;6.30;99.90
5705;DHT22;2877;48.238;11.160;2023-12-28T01:35:08;6.30;99.90
5705;DHT22;2877;48.238;11.160;2023-12-28T01:37:34;6.30;99.90
5705;DHT22;2877;48.238;11.160;2023-12-28T01:40:00;6.40;99.90
5705;DHT22;2877;48.238;11.160;2023-12-28T01:42:26;6.50;99.90
5705;DHT22;2877;48.238;11.160;2023-12-28T01:44:52;6.50;99.90
5705;DHT22;2877;48.238;11.160;2023-12-28T01:47:18;6.50;99.90
5705;DHT22;2877;48.238;11.160;2023-12-28T01:49:44;6.40;99.90
5705;DHT22;2877;48.238;11.160;2023-12-28T01:52:10;6.30;99.90
5705;DHT22;2877;48.238;11.160;2023-12-28T01:54:36;6.30;99.90
5705;DHT22;2877;48.238;11.160;2023-12-28T01:57:03;6.40;99.90
5705;DHT22;2877;48.238;11.160;2023-12-28T01:59:30;6.50;99.90
5705;DHT22;2877;48.238;11.160;2023-12-28T02:01:56;6.60;99.90
5705;DHT22;2877;48.238;11.160;2023-12-28T02:04:22;6.60;99.90
5705;DHT22;2877;48.238;11.160;2023-12-28T02:06:56;6.60;99.90
5705;DHT22;2877;48.238;11.160;2023-12-28T02:09:22;6.60;99.90
5705;DHT22;2877;48.238;11.160;2023-12-28T02:11:47;6.60;99.60
5705;DHT22;2877;48.238;11.160;2023-12-28T02:14:13;6.80;99.70
5705;DHT22;2877;48.238;11.160;2023-12-28T02:16:50;6.80;98.90
5705;DHT22;2877;48.238;11.160;2023-12-28T02:21:47;7.10;98.10
5705;DHT22;2877;48.238;11.160;2023-12-28T02:24:13;7.10;97.50
5705;DHT22;2877;48.238;11.160;2023-12-28T02:26:39;7.20;97.40
5705;DHT22;2877;48.238;11.160;2023-12-28T02:29:04;7.10;97.30
5705;DHT22;2877;48.238;11.160;2023-12-28T02:31:36;6.90;98.00
5705;DHT22;2877;48.238;11.160;2023-12-28T02:34:11;6.70;98.10
5705;DHT22;2877;48.238;11.160;2023-12-28T02:36:41;6.50;98.50
5705;DHT22;2877;48.238;11.160;2023-12-28T02:39:07;6.40;98.00
5705;DHT22;2877;48.238;11.160;2023-12-28T02:41:33;6.30;98.20
5705;DHT22;2877;48.238;11.160;2023-12-28T02:43:59;6.30;98.30
5705;DHT22;2877;48.238;11.160;2023-12-28T02:46:25;6.30;97.60
5705;DHT22;2877;48.238;11.160;2023-12-28T02:48:50;6.30;98.10
5705;DHT22;2877;48.238;11.160;2023-12-28T02:51:18;6.20;97.50
5705;DHT22;2877;48.238;11.160;2023-12-28T02:53:43;6.20;96.70
5705;DHT22;2877;48.238;11.160;2023-12-28T02:56:09;6.30;96.80
5705;DHT22;2877;48.238;11.160;2023-12-28T02:58:34;6.40;96.60
5705;DHT22;2877;48.238;11.160;2023-12-28T03:01:00;6.40;97.40
5705;DHT22;2877;48.238;11.160;2023-12-28T03:03:25;6.40;96.50
5705;DHT22;2877;48.238;11.160;2023-12-28T03:05:51;6.30;96.50
5705;DHT22;2877;48.238;11.160;2023-12-28T03:08:16;6.20;97.20
5705;DHT22;2877;48.238;11.160;2023-12-28T03:10:42;6.00;96.70
5705;DHT22;2877;48.238;11.160;2023-12-28T03:13:08;6.10;97.10
5705;DHT22;2877;48.238;11.160;2023-12-28T03:15:33;5.90;97.60
5705;DHT22;2877;48.238;11.160;2023-12-28T03:17:59;5.70;98.30
5705;DHT22;2877;48.238;11.160;2023-12-28T03:20:25;5.50;99.00
5705;DHT22;2877;48.238;11.160;2023-12-28T03:22:50;5.30;99.20
5705;DHT22;2877;48.238;11.160;2023-12-28T03:25:16;5.10;99.90
5705;DHT22;2877;48.238;11.160;2023-12-28T03:27:41;4.90;99.90
5705;DHT22;2877;48.238;11.160;2023-12-28T03:30:07;4.70;99.90
5705;DHT22;2877;48.238;11.160;2023-12-28T03:32:33;4.50;99.90
5705;DHT22;2877;48.238;11.160;2023-12-28T03:34:58;4.30;99.90
5705;DHT22;2877;48.238;11.160;2023-12-28T03:37:24;4.20;99.90
5705;DHT22;2877;48.238;11.160;2023-12-28T03:39:49;4.00;99.90
5705;DHT22;2877;48.238;11.160;2023-12-28T03:42:15;3.90;99.90
5705;DHT22;2877;48.238;11.160;2023-12-28T03:44:40;3.80;99.90
5705;DHT22;2877;48.238;11.160;2023-12-28T03:47:06;3.70;99.90
5705;DHT22;2877;48.238;11.160;2023-12-28T03:49:31;3.60;99.90
5705;DHT22;2877;48.238;11.160;2023-12-28T03:51:57;3.50;99.90
5705;DHT22;2877;48.238;11.160;2023-12-28T03:54:23;3.40;99.90
5705;DHT22;2877;48.238;11.160;2023-12-28T03:56:48;3.30;99.90
5705;DHT22;2877;48.238;11.160;2023-12-28T03:59:14;3.20;99.90
5705;DHT22;2877;48.238;11.160;2023-12-28T04:01:43;3.10;99.90
5705;DHT22;2877;48.238;11.160;2023-12-28T04:04:09;2.90;99.90
5705;DHT22;2877;48.238;11.160;2023-12-28T04:06:35;2.80;99.90
5705;DHT22;2877;48.238;11.160;2023-12-28T04:09:00;2.70;99.90
5705;DHT22;2877;48.238;11.160;2023-12-28T04:11:26;2.80;99.90
5705;DHT22;2877;48.238;11.160;2023-12-28T04:13:52;2.90;99.90
5705;DHT22;2877;48.238;11.160;2023-12-28T04:16:17;2.90;99.90
5705;DHT22;2877;48.238;11.160;2023-12-28T04:18:43;3.00;99.90
5705;DHT22;2877;48.238;11.160;2023-12-28T04:21:12;3.10;99.90
5705;DHT22;2877;48.238;11.160;2023-12-28T04:23:39;3.20;99.90
5705;DHT22;2877;48.238;11.160;2023-12-28T04:26:04;3.20;99.90
5705;DHT22;2877;48.238;11.160;2023-12-28T04:28:30;3.30;99.90
5705;DHT22;2877;48.238;11.160;2023-12-28T04:30:56;3.30;99.90
5705;DHT22;2877;48.238;11.160;2023-12-28T04:33:21;3.50;99.90
5705;DHT22;2877;48.238;11.160;2023-12-28T04:35:47;3.60;99.90
5705;DHT22;2877;48.238;11.160;2023-12-28T04:38:13;3.80;99.90
5705;DHT22;2877;48.238;11.160;2023-12-28T04:40:38;3.90;99.90
5705;DHT22;2877;48.238;11.160;2023-12-28T04:43:04;3.90;99.90
5705;DHT22;2877;48.238;11.160;2023-12-28T04:45:29;4.00;99.90
5705;DHT22;2877;48.238;11.160;2023-12-28T04:47:55;4.00;99.90
5705;DHT22;2877;48.238;11.160;2023-12-28T04:50:20;4.00;99.90
5705;DHT22;2877;48.238;11.160;2023-12-28T04:52:46;4.00;99.90
5705;DHT22;2877;48.238;11.160;2023-12-28T04:55:12;3.90;99.90
5705;DHT22;2877;48.238;11.160;2023-12-28T04:57:37;3.80;99.90
5705;DHT22;2877;48.238;11.160;2023-12-28T05:00:04;3.80;99.90
5705;DHT22;2877;48.238;11.160;2023-12-28T05:02:29;3.80;99.90
5705;DHT22;2877;48.238;11.160;2023-12-28T05:04:55;3.80;99.90
5705;DHT22;2877;48.238;11.160;2023-12-28T05:07:20;3.80;99.90
5705;DHT22;2877;48.238;11.160;2023-12-28T05:09:46;3.90;99.90
5705;DHT22;2877;48.238;11.160;2023-12-28T05:12:11;4.00;99.90
5705;DHT22;2877;48.238;11.160;2023-12-28T05:14:37;4.00;99.90
5705;DHT22;2877;48.238;11.160;2023-12-28T05:17:03;3.90;99.90
5705;DHT22;2877;48.238;11.160;2023-12-28T05:19:29;3.80;99.90
5705;DHT22;2877;48.238;11.160;2023-12-28T05:21:54;3.90;99.90
5705;DHT22;2877;48.238;11.160;2023-12-28T05:24:20;4.10;99.90
5705;DHT22;2877;48.238;11.160;2023-12-28T05:26:45;4.20;99.90
5705;DHT22;2877;48.238;11.160;2023-12-28T05:29:11;4.30;99.90
5705;DHT22;2877;48.238;11.160;2023-12-28T05:31:36;4.30;99.90
5705;DHT22;2877;48.238;11.160;2023-12-28T05:34:02;4.30;99.90
5705;DHT22;2877;48.238;11.160;2023-12-28T05:36:28;4.20;99.90
5705;DHT22;2877;48.238;11.160;2023-12-28T05:38:54;4.20;99.90
5705;DHT22;2877;48.238;11.160;2023-12-28T05:41:19;4.10;99.90
5705;DHT22;2877;48.238;11.160;2023-12-28T05:43:45;4.10;99.90
5705;DHT22;2877;48.238;11.160;2023-12-28T05:46:10;4.10;99.90
5705;DHT22;2877;48.238;11.160;2023-12-28T05:48:36;4.20;99.90
5705;DHT22;2877;48.238;11.160;2023-12-28T05:51:01;4.30;99.90
5705;DHT22;2877;48.238;11.160;2023-12-28T05:53:27;4.40;99.90
5705;DHT22;2877;48.238;11.160;2023-12-28T05:55:53;4.40;99.90
5705;DHT22;2877;48.238;11.160;2023-12-28T05:58:18;4.40;99.90
5705;DHT22;2877;48.238;11.160;2023-12-28T06:00:44;4.40;99.90
5705;DHT22;2877;48.238;11.160;2023-12-28T06:03:11;4.20;99.90
5705;DHT22;2877;48.238;11.160;2023-12-28T06:05:37;4.00;99.90
5705;DHT22;2877;48.238;11.160;2023-12-28T06:08:03;3.80;99.90
5705;DHT22;2877;48.238;11.160;2023-12-28T06:10:28;3.60;99.90
5705;DHT22;2877;48.238;11.160;2023-12-28T06:12:54;3.50;99.90
5705;DHT22;2877;48.238;11.160;2023-12-28T06:15:20;3.30;99.90
5705;DHT22;2877;48.238;11.160;2023-12-28T06:17:45;3.20;99.90
5705;DHT22;2877;48.238;11.160;2023-12-28T06:20:11;3.30;99.90
5705;DHT22;2877;48.238;11.160;2023-12-28T06:22:37;3.30;99.90
5705;DHT22;2877;48.238;11.160;2023-12-28T06:25:03;3.30;99.90
5705;DHT22;2877;48.238;11.160;2023-12-28T06:27:29;3.50;99.90
5705;DHT22;2877;48.238;11.160;2023-12-28T06:29:55;3.50;99.90
5705;DHT22;2877;48.238;11.160;2023-12-28T06:32:20;3.70;99.90
5705;DHT22;2877;48.238;11.160;2023-12-28T06:34:46;3.70;99.90
5705;DHT22;2877;48.238;11.160;2023-12-28T06:37:12;3.90;99.90
5705;DHT22;2877;48.238;11.160;2023-12-28T06:39:38;3.90;99.90
5705;DHT22;2877;48.238;11.160;2023-12-28T06:42:04;3.90;99.90
5705;DHT22;2877;48.238;11.160;2023-12-28T06:44:30;4.00;99.90
5705;DHT22;2877;48.238;11.160;2023-12-28T06:46:55;4.00;99.90
5705;DHT22;2877;48.238;11.160;2023-12-28T06:49:21;4.10;99.90
5705;DHT22;2877;48.238;11.160;2023-12-28T06:51:46;4.10;99.90
5705;DHT22;2877;48.238;11.160;2023-12-28T06:54:13;4.00;99.90
5705;DHT22;2877;48.238;11.160;2023-12-28T06:56:39;4.20;99.90
5705;DHT22;2877;48.238;11.160;2023-12-28T06:59:05;4.30;99.90
5705;DHT22;2877;48.238;11.160;2023-12-28T07:01:31;4.20;99.90
5705;DHT22;2877;48.238;11.160;2023-12-28T07:03:56;4.40;99.90
5705;DHT22;2877;48.238;11.160;2023-12-28T07:06:22;4.50;99.90
5705;DHT22;2877;48.238;11.160;2023-12-28T07:08:47;4.50;99.90
5705;DHT22;2877;48.238;11.160;2023-12-28T07:11:13;4.50;99.90
5705;DHT22;2877;48.238;11.160;2023-12-28T07:13:38;4.50;99.90
5705;DHT22;2877;48.238;11.160;2023-12-28T07:16:04;4.70;99.90
5705;DHT22;2877;48.238;11.160;2023-12-28T07:18:30;4.70;99.90
5705;DHT22;2877;48.238;11.160;2023-12-28T07:20:55;4.70;99.90
5705;DHT22;2877;48.238;11.160;2023-12-28T07:23:21;4.70;99.90
5705;DHT22;2877;48.238;11.160;2023-12-28T07:25:47;4.70;99.90
5705;DHT22;2877;48.238;11.160;2023-12-28T07:28:12;4.70;99.90
5705;DHT22;2877;48.238;11.160;2023-12-28T07:30:38;4.80;99.90
5705;DHT22;2877;48.238;11.160;2023-12-28T07:33:04;4.90;99.90
5705;DHT22;2877;48.238;11.160;2023-12-28T07:35:29;5.00;99.90
5705;DHT22;2877;48.238;11.160;2023-12-28T07:37:55;5.20;99.90
5705;DHT22;2877;48.238;11.160;2023-12-28T07:40:21;5.30;99.90
5705;DHT22;2877;48.238;11.160;2023-12-28T07:42:46;5.20;99.90
5705;DHT22;2877;48.238;11.160;2023-12-28T07:45:12;5.20;99.90
5705;DHT22;2877;48.238;11.160;2023-12-28T07:47:37;5.30;99.90
5705;DHT22;2877;48.238;11.160;2023-12-28T07:50:03;5.30;99.90
5705;DHT22;2877;48.238;11.160;2023-12-28T07:52:29;5.30;99.90
5705;DHT22;2877;48.238;11.160;2023-12-28T07:54:54;5.30;99.90
5705;DHT22;2877;48.238;11.160;2023-12-28T07:57:21;5.40;99.90
5705;DHT22;2877;48.238;11.160;2023-12-28T07:59:46;5.40;99.90
5705;DHT22;2877;48.238;11.160;2023-12-28T08:02:12;5.50;99.90
5705;DHT22;2877;48.238;11.160;2023-12-28T08:04:37;5.60;99.90
5705;DHT22;2877;48.238;11.160;2023-12-28T08:07:03;5.70;99.90
5705;DHT22;2877;48.238;11.160;2023-12-28T08:09:29;5.80;99.90
5705;DHT22;2877;48.238;11.160;2023-12-28T08:11:55;5.90;99.90
5705;DHT22;2877;48.238;11.160;2023-12-28T08:14:21;6.10;99.90
5705;DHT22;2877;48.238;11.160;2023-12-28T08:16:46;6.20;99.90
5705;DHT22;2877;48.238;11.160;2023-12-28T08:19:12;6.30;99.90
5705;DHT22;2877;48.238;11.160;2023-12-28T08:21:38;6.40;99.90
5705;DHT22;2877;48.238;11.160;2023-12-28T08:24:04;6.60;99.90
5705;DHT22;2877;48.238;11.160;2023-12-28T08:26:29;6.70;99.90
5705;DHT22;2877;48.238;11.160;2023-12-28T08:28:55;6.80;99.90
5705;DHT22;2877;48.238;11.160;2023-12-28T08:31:21;6.90;99.90
5705;DHT22;2877;48.238;11.160;2023-12-28T08:33:46;7.00;99.90
5705;DHT22;2877;48.238;11.160;2023-12-28T08:36:12;7.00;99.90
5705;DHT22;2877;48.238;11.160;2023-12-28T08:38:38;7.10;99.90
5705;DHT22;2877;48.238;11.160;2023-12-28T08:41:04;7.10;99.90
5705;DHT22;2877;48.238;11.160;2023-12-28T08:43:35;7.20;99.90
5705;DHT22;2877;48.238;11.160;2023-12-28T08:46:00;7.40;98.00
5705;DHT22;2877;48.238;11.160;2023-12-28T08:48:26;7.60;99.40
5705;DHT22;2877;48.238;11.160;2023-12-28T08:50:51;7.60;99.60
5705;DHT22;2877;48.238;11.160;2023-12-28T08:53:17;7.70;99.00
5705;DHT22;2877;48.238;11.160;2023-12-28T08:55:42;7.70;99.20
5705;DHT22;2877;48.238;11.160;2023-12-28T08:58:08;7.80;99.50
5705;DHT22;2877;48.238;11.160;2023-12-28T09:00:33;7.80;99.00
5705;DHT22;2877;48.238;11.160;2023-12-28T09:02:59;7.90;98.60
5705;DHT22;2877;48.238;11.160;2023-12-28T09:05:24;8.00;98.10
5705;DHT22;2877;48.238;11.160;2023-12-28T09:07:50;8.10;98.60
5705;DHT22;2877;48.238;11.160;2023-12-28T09:10:16;8.20;99.00
5705;DHT22;2877;48.238;11.160;2023-12-28T09:12:41;8.30;98.10
5705;DHT22;2877;48.238;11.160;2023-12-28T09:15:07;8.40;97.10
5705;DHT22;2877;48.238;11.160;2023-12-28T09:17:34;8.50;97.70
5705;DHT22;2877;48.238;11.160;2023-12-28T09:20:00;8.60;96.80
5705;DHT22;2877;48.238;11.160;2023-12-28T09:22:27;8.80;96.80
5705;DHT22;2877;48.238;11.160;2023-12-28T09:24:52;8.90;95.90
5705;DHT22;2877;48.238;11.160;2023-12-28T09:27:18;9.10;95.20
5705;DHT22;2877;48.238;11.160;2023-12-28T09:29:43;9.20;94.30
5705;DHT22;2877;48.238;11.160;2023-12-28T09:32:09;9.30;94.30
5705;DHT22;2877;48.238;11.160;2023-12-28T09:34:34;9.40;93.00
5705;DHT22;2877;48.238;11.160;2023-12-28T09:37:00;9.60;93.40
5705;DHT22;2877;48.238;11.160;2023-12-28T09:39:25;9.70;92.90
5705;DHT22;2877;48.238;11.160;2023-12-28T09:42:25;9.70;92.50
5705;DHT22;2877;48.238;11.160;2023-12-28T09:44:54;9.80;92.10
5705;DHT22;2877;48.238;11.160;2023-12-28T09:47:20;9.80;92.20
5705;DHT22;2877;48.238;11.160;2023-12-28T09:49:46;9.90;91.50
5705;DHT22;2877;48.238;11.160;2023-12-28T09:52:12;10.00;91.30
5705;DHT22;2877;48.238;11.160;2023-12-28T09:54:37;10.00;91.10
5705;DHT22;2877;48.238;11.160;2023-12-28T09:57:03;10.10;89.70
5705;DHT22;2877;48.238;11.160;2023-12-28T09:59:30;10.30;89.80
5705;DHT22;2877;48.238;11.160;2023-12-28T10:01:57;10.40;89.40
5705;DHT22;2877;48.238;11.160;2023-12-28T10:04:23;10.50;89.60
5705;DHT22;2877;48.238;11.160;2023-12-28T10:06:49;10.50;89.60
5705;DHT22;2877;48.238;11.160;2023-12-28T10:09:16;10.60;89.30
5705;DHT22;2877;48.238;11.160;2023-12-28T10:11:41;10.50;88.10
5705;DHT22;2877;48.238;11.160;2023-12-28T10:14:08;10.60;87.60
5705;DHT22;2877;48.238;11.160;2023-12-28T10:16:34;10.60;88.50
5705;DHT22;2877;48.238;11.160;2023-12-28T10:19:00;10.60;89.90
5705;DHT22;2877;48.238;11.160;2023-12-28T10:21:25;10.60;89.00
5705;DHT22;2877;48.238;11.160;2023-12-28T10:23:51;10.60;88.70
5705;DHT22;2877;48.238;11.160;2023-12-28T10:26:20;10.60;88.50
5705;DHT22;2877;48.238;11.160;2023-12-28T10:28:46;10.70;90.00
5705;DHT22;2877;48.238;11.160;2023-12-28T10:31:12;10.70;90.00
5705;DHT22;2877;48.238;11.160;2023-12-28T10:33:38;10.80;89.30
5705;DHT22;2877;48.238;11.160;2023-12-28T10:36:08;10.80;87.00
5705;DHT22;2877;48.238;11.160;2023-12-28T10:38:35;10.80;85.70
5705;DHT22;2877;48.238;11.160;2023-12-28T10:41:06;10.80;88.20
5705;DHT22;2877;48.238;11.160;2023-12-28T10:43:36;10.80;87.80
5705;DHT22;2877;48.238;11.160;2023-12-28T10:46:08;10.80;88.20
5705;DHT22;2877;48.238;11.160;2023-12-28T10:48:38;10.80;88.60
5705;DHT22;2877;48.238;11.160;2023-12-28T10:51:08;10.80;87.50
5705;DHT22;2877;48.238;11.160;2023-12-28T10:59:16;10.80;87.60
5705;DHT22;2877;48.238;11.160;2023-12-28T11:01:42;10.90;88.20
5705;DHT22;2877;48.238;11.160;2023-12-28T11:06:48;11.00;88.10
5705;DHT22;2877;48.238;11.160;2023-12-28T11:09:15;11.00;85.60
5705;DHT22;2877;48.238;11.160;2023-12-28T11:11:43;11.00;88.80
5705;DHT22;2877;48.238;11.160;2023-12-28T11:14:08;11.00;88.50
5705;DHT22;2877;48.238;11.160;2023-12-28T11:16:34;11.00;86.00
5705;DHT22;2877;48.238;11.160;2023-12-28T11:19:02;11.10;87.40
5705;DHT22;2877;48.238;11.160;2023-12-28T11:21:28;11.10;87.00
5705;DHT22;2877;48.238;11.160;2023-12-28T11:23:54;11.10;85.60
5705;DHT22;2877;48.238;11.160;2023-12-28T11:26:21;11.20;85.50
5705;DHT22;2877;48.238;11.160;2023-12-28T11:28:46;11.30;85.10
5705;DHT22;2877;48.238;11.160;2023-12-28T11:31:16;11.30;84.60
5705;DHT22;2877;48.238;11.160;2023-12-28T11:33:47;11.40;86.30
5705;DHT22;2877;48.238;11.160;2023-12-28T11:36:25;11.40;85.40
5705;DHT22;2877;48.238;11.160;2023-12-28T11:38:53;11.40;85.00
5705;DHT22;2877;48.238;11.160;2023-12-28T11:41:21;11.40;84.60
5705;DHT22;2877;48.238;11.160;2023-12-28T11:43:53;11.40;85.00
5705;DHT22;2877;48.238;11.160;2023-12-28T11:46:20;11.30;85.90
5705;DHT22;2877;48.238;11.160;2023-12-28T11:48:45;11.20;85.70
5705;DHT22;2877;48.238;11.160;2023-12-28T11:51:11;11.10;86.20
5705;DHT22;2877;48.238;11.160;2023-12-28T11:53:37;11.10;89.00
5705;DHT22;2877;48.238;11.160;2023-12-28T11:56:03;10.90;88.70
5705;DHT22;2877;48.238;11.160;2023-12-28T11:58:30;10.90;88.20
5705;DHT22;2877;48.238;11.160;2023-12-28T12:00:56;10.90;88.90
5705;DHT22;2877;48.238;11.160;2023-12-28T12:03:24;10.80;87.80
5705;DHT22;2877;48.238;11.160;2023-12-28T12:05:50;10.80;88.40
5705;DHT22;2877;48.238;11.160;2023-12-28T12:08:16;10.80;87.20
5705;DHT22;2877;48.238;11.160;2023-12-28T12:10:41;10.80;88.10
5705;DHT22;2877;48.238;11.160;2023-12-28T12:13:08;10.70;88.80
5705;DHT22;2877;48.238;11.160;2023-12-28T12:15:33;10.70;86.70
5705;DHT22;2877;48.238;11.160;2023-12-28T12:18:00;10.70;88.50
5705;DHT22;2877;48.238;11.160;2023-12-28T12:20:26;10.70;88.20
5705;DHT22;2877;48.238;11.160;2023-12-28T12:22:57;10.70;89.70
5705;DHT22;2877;48.238;11.160;2023-12-28T12:25:23;10.70;87.50
5705;DHT22;2877;48.238;11.160;2023-12-28T12:27:49;10.70;86.00
5705;DHT22;2877;48.238;11.160;2023-12-28T12:30:14;10.70;87.80
5705;DHT22;2877;48.238;11.160;2023-12-28T12:32:40;10.70;86.50
5705;DHT22;2877;48.238;11.160;2023-12-28T12:35:09;10.70;87.40
5705;DHT22;2877;48.238;11.160;2023-12-28T12:37:36;10.70;87.70
5705;DHT22;2877;48.238;11.160;2023-12-28T12:40:03;10.60;87.50
5705;DHT22;2877;48.238;11.160;2023-12-28T12:42:29;10.70;87.80
5705;DHT22;2877;48.238;11.160;2023-12-28T12:44:54;10.60;87.80
5705;DHT22;2877;48.238;11.160;2023-12-28T12:47:20;10.70;87.80
5705;DHT22;2877;48.238;11.160;2023-12-28T12:49:45;10.70;88.20
5705;DHT22;2877;48.238;11.160;2023-12-28T12:52:12;10.70;87.10
5705;DHT22;2877;48.238;11.160;2023-12-28T12:54:38;10.80;88.00
5705;DHT22;2877;48.238;11.160;2023-12-28T12:57:03;10.80;87.90
5705;DHT22;2877;48.238;11.160;2023-12-28T12:59:29;10.70;88.10
5705;DHT22;2877;48.238;11.160;2023-12-28T13:01:55;10.70;89.70
5705;DHT22;2877;48.238;11.160;2023-12-28T13:04:21;10.60;90.30
5705;DHT22;2877;48.238;11.160;2023-12-28T13:06:47;10.60;89.00
5705;DHT22;2877;48.238;11.160;2023-12-28T13:09:13;10.60;90.10
5705;DHT22;2877;48.238;11.160;2023-12-28T13:11:39;10.60;89.40
5705;DHT22;2877;48.238;11.160;2023-12-28T13:14:04;10.60;90.00
5705;DHT22;2877;48.238;11.160;2023-12-28T13:16:30;10.70;89.30
5705;DHT22;2877;48.238;11.160;2023-12-28T13:18:56;10.70;89.90
5705;DHT22;2877;48.238;11.160;2023-12-28T13:21:22;10.70;90.50
5705;DHT22;2877;48.238;11.160;2023-12-28T13:23:47;10.70;90.50
5705;DHT22;2877;48.238;11.160;2023-12-28T13:26:13;10.70;90.80
5705;DHT22;2877;48.238;11.160;2023-12-28T13:28:38;10.70;91.00
5705;DHT22;2877;48.238;11.160;2023-12-28T13:31:04;10.70;90.70
5705;DHT22;2877;48.238;11.160;2023-12-28T13:33:29;10.70;91.10
5705;DHT22;2877;48.238;11.160;2023-12-28T13:35:55;10.60;91.30
5705;DHT22;2877;48.238;11.160;2023-12-28T13:38:21;10.60;91.50
5705;DHT22;2877;48.238;11.160;2023-12-28T13:40:47;10.60;91.60
5705;DHT22;2877;48.238;11.160;2023-12-28T13:43:12;10.60;91.10
5705;DHT22;2877;48.238;11.160;2023-12-28T13:45:38;10.60;91.60
5705;DHT22;2877;48.238;11.160;2023-12-28T13:48:04;10.60;91.10
5705;DHT22;2877;48.238;11.160;2023-12-28T13:50:29;10.60;91.10
5705;DHT22;2877;48.238;11.160;2023-12-28T13:52:56;10.60;91.70
5705;DHT22;2877;48.238;11.160;2023-12-28T13:55:21;10.60;91.80
5705;DHT22;2877;48.238;11.160;2023-12-28T13:57:47;10.60;91.40
5705;DHT22;2877;48.238;11.160;2023-12-28T14:00:13;10.50;91.70
5705;DHT22;2877;48.238;11.160;2023-12-28T14:02:39;10.50;91.20
5705;DHT22;2877;48.238;11.160;2023-12-28T14:05:06;10.50;91.40
5705;DHT22;2877;48.238;11.160;2023-12-28T14:07:31;10.40;91.50
5705;DHT22;2877;48.238;11.160;2023-12-28T14:09:57;10.40;92.00
5705;DHT22;2877;48.238;11.160;2023-12-28T14:12:22;10.40;92.00
5705;DHT22;2877;48.238;11.160;2023-12-28T14:14:48;10.30;92.30
5705;DHT22;2877;48.238;11.160;2023-12-28T14:17:13;10.20;92.10
5705;DHT22;2877;48.238;11.160;2023-12-28T14:19:40;10.20;91.80
5705;DHT22;2877;48.238;11.160;2023-12-28T14:22:07;10.20;92.00
5705;DHT22;2877;48.238;11.160;2023-12-28T14:24:32;10.10;92.50
5705;DHT22;2877;48.238;11.160;2023-12-28T14:26:58;10.00;92.40
5705;DHT22;2877;48.238;11.160;2023-12-28T14:29:24;10.00;93.10
5705;DHT22;2877;48.238;11.160;2023-12-28T14:31:50;10.00;92.60
5705;DHT22;2877;48.238;11.160;2023-12-28T14:34:16;10.00;92.90
5705;DHT22;2877;48.238;11.160;2023-12-28T14:36:44;9.90;93.70
5705;DHT22;2877;48.238;11.160;2023-12-28T14:39:15;9.80;93.10
5705;DHT22;2877;48.238;11.160;2023-12-28T14:41:43;9.90;93.00
5705;DHT22;2877;48.238;11.160;2023-12-28T14:44:09;9.80;94.10
5705;DHT22;2877;48.238;11.160;2023-12-28T14:46:35;9.80;93.40
5705;DHT22;2877;48.238;11.160;2023-12-28T14:49:00;9.70;93.20
5705;DHT22;2877;48.238;11.160;2023-12-28T14:51:27;9.70;92.80
5705;DHT22;2877;48.238;11.160;2023-12-28T14:53:53;9.70;92.60
5705;DHT22;2877;48.238;11.160;2023-12-28T14:56:19;9.70;92.30
5705;DHT22;2877;48.238;11.160;2023-12-28T14:58:44;9.70;93.10
5705;DHT22;2877;48.238;11.160;2023-12-28T15:01:11;9.70;92.50
5705;DHT22;2877;48.238;11.160;2023-12-28T15:03:36;9.70;93.20
5705;DHT22;2877;48.238;11.160;2023-12-28T15:06:04;9.60;92.10
5705;DHT22;2877;48.238;11.160;2023-12-28T15:08:30;9.60;91.90
5705;DHT22;2877;48.238;11.160;2023-12-28T15:10:56;9.70;91.40
5705;DHT22;2877;48.238;11.160;2023-12-28T15:13:22;9.70;91.90
5705;DHT22;2877;48.238;11.160;2023-12-28T15:15:48;9.70;91.90
5705;DHT22;2877;48.238;11.160;2023-12-28T15:18:14;9.60;91.60
5705;DHT22;2877;48.238;11.160;2023-12-28T15:20:46;9.60;91.80
5705;DHT22;2877;48.238;11.160;2023-12-28T15:23:15;9.70;91.10
5705;DHT22;2877;48.238;11.160;2023-12-28T15:25:44;9.70;91.80
5705;DHT22;2877;48.238;11.160;2023-12-28T15:28:10;9.70;91.60
5705;DHT22;2877;48.238;11.160;2023-12-28T15:30:35;9.60;91.80
5705;DHT22;2877;48.238;11.160;2023-12-28T15:33:01;9.60;92.20
5705;DHT22;2877;48.238;11.160;2023-12-28T15:35:27;9.50;92.30
5705;DHT22;2877;48.238;11.160;2023-12-28T15:37:53;9.50;92.10
5705;DHT22;2877;48.238;11.160;2023-12-28T15:40:20;9.50;91.50
5705;DHT22;2877;48.238;11.160;2023-12-28T15:42:46;9.60;91.20
5705;DHT22;2877;48.238;11.160;2023-12-28T15:45:11;9.60;91.30
5705;DHT22;2877;48.238;11.160;2023-12-28T15:47:37;9.50;91.20
5705;DHT22;2877;48.238;11.160;2023-12-28T15:50:02;9.50;91.10
5705;DHT22;2877;48.238;11.160;2023-12-28T15:52:30;9.50;91.30
5705;DHT22;2877;48.238;11.160;2023-12-28T15:54:55;9.50;91.80
5705;DHT22;2877;48.238;11.160;2023-12-28T15:57:21;9.40;92.00
5705;DHT22;2877;48.238;11.160;2023-12-28T15:59:46;9.40;92.10